Nea Anchialos, Greece
Current Conditions -  °F | °C
As of 6:20 PM on Monday 24 Nov 2014 (Local Time) from LGBL Reporting Station
Few Clouds Few Clouds  
Wind Chill: 46°   Ceiling: Unl
Heat Index: 46°   Visibility: 6mi
Dew Point: 43°   Wind: 3mph
Humidity: 87%   Direction: 180°S
Pressure: 30.18"   Gusts: NA
Location:  39.27°N, 22.82°E
Report Text: LGBL 241620Z 18003KT 9999 FEW035 08/06 Q1022
Loading
Personal Weather Stations






























Interactive Weather Map New forecast layout! Learn more

10-Day Weather Forecast

Advertisements
Track Severe Weather on mobile